createdAt,value
2022-11-04T00:05:53.114Z,16.02
2022-11-04T00:08:27.191Z,15.10
2022-11-04T00:11:16.976Z,14.75
2022-11-04T00:13:46.858Z,15.25
2022-11-04T00:30:21.216Z,14.02
2022-11-04T00:43:24.084Z,14.77
2022-11-04T00:45:55.195Z,14.57
2022-11-04T00:48:22.605Z,13.93
2022-11-04T00:50:54.726Z,13.45
2022-11-04T01:03:58.859Z,12.18
2022-11-04T01:45:14.571Z,14.30
2022-11-04T01:47:46.399Z,12.23
2022-11-04T02:07:24.561Z,16.75
2022-11-04T02:09:54.151Z,16.73
2022-11-04T02:12:56.850Z,14.95
2022-11-04T02:19:46.969Z,13.25
2022-11-04T03:40:22.847Z,17.38
2022-11-04T03:46:33.551Z,18.20
2022-11-04T03:49:16.602Z,7.43
2022-11-04T03:51:54.571Z,19.23
2022-11-04T06:57:22.330Z,17.10
2022-11-04T15:46:30.181Z,24.13
2022-11-04T18:20:03.498Z,23.80
2022-11-04T18:22:34.527Z,25.80
2022-11-04T18:25:04.880Z,32.85
2022-11-04T18:27:52.137Z,39.38
2022-11-04T18:30:19.495Z,39.78
2022-11-04T18:32:52.917Z,35.42
2022-11-04T18:41:56.289Z,31.63
2022-11-04T18:44:24.553Z,31.23
2022-11-04T18:47:16.250Z,26.55
2022-11-04T18:49:45.560Z,24.67
2022-11-04T18:52:13.796Z,23.90
2022-11-04T18:54:43.238Z,24.75
2022-11-04T18:57:12.410Z,23.95
2022-11-04T19:03:11.210Z,25.20
2022-11-04T20:15:32.172Z,26.73
2022-11-04T20:25:06.914Z,25.23
2022-11-04T20:27:35.669Z,26.70
2022-11-04T20:30:05.131Z,25.85
2022-11-04T20:32:34.723Z,27.63
2022-11-04T20:35:02.492Z,27.75
2022-11-04T20:37:29.759Z,29.15
2022-11-04T20:39:57.351Z,25.83
2022-11-04T20:42:25.402Z,25.17
2022-11-04T20:44:54.272Z,27.35
2022-11-04T20:47:22.684Z,24.90
2022-11-04T20:49:49.913Z,25.40
2022-11-04T20:52:18.416Z,23.25
2022-11-04T20:54:45.925Z,23.27
2022-11-04T20:57:13.325Z,24.60
2022-11-04T20:59:41.523Z,25.00
2022-11-04T21:02:12.028Z,25.27
2022-11-04T21:04:40.375Z,26.08
2022-11-04T21:07:07.580Z,24.05
2022-11-04T21:09:37.166Z,25.83
2022-11-04T21:12:05.292Z,25.50
2022-11-04T21:14:37.643Z,25.73
2022-11-04T21:17:06.541Z,26.67
2022-11-04T21:19:33.841Z,27.10
2022-11-04T21:22:01.349Z,28.17
2022-11-04T21:24:36.312Z,31.98
2022-11-04T21:27:06.006Z,33.78
2022-11-04T21:29:34.846Z,33.28
2022-11-04T21:32:02.252Z,33.17
2022-11-04T21:38:07.738Z,32.83
2022-11-04T21:40:36.365Z,28.63
2022-11-04T21:43:05.891Z,28.17
2022-11-04T22:22:17.947Z,29.25
2022-11-04T22:49:20.651Z,34.30
2022-11-04T22:51:47.661Z,38.95
2022-11-04T22:54:34.670Z,47.45
2022-11-04T22:57:01.641Z,39.42
2022-11-04T22:59:28.674Z,39.50
2022-11-04T23:01:56.210Z,40.10
2022-11-04T23:04:23.355Z,37.95
2022-11-04T23:06:50.299Z,37.55
2022-11-04T23:09:17.292Z,37.45
2022-11-04T23:12:02.579Z,36.33
2022-11-04T23:14:41.637Z,36.60
2022-11-04T23:17:45.149Z,35.83
2022-11-04T23:20:14.604Z,32.88
2022-11-04T23:23:05.251Z,30.70
2022-11-04T23:25:32.256Z,30.65
2022-11-04T23:28:17.776Z,29.33
2022-11-04T23:30:52.223Z,27.63
2022-11-04T23:33:39.275Z,27.13
2022-11-04T23:36:24.801Z,28.42
2022-11-04T23:38:51.758Z,26.77
2022-11-04T23:41:37.415Z,28.02
2022-11-04T23:44:04.585Z,26.35
2022-11-04T23:46:50.003Z,24.90
2022-11-04T23:49:35.537Z,25.10
2022-11-04T23:52:20.982Z,24.85
2022-11-04T23:55:06.538Z,25.38
2022-11-04T23:57:51.890Z,22.98
